sensor_id;sensor_type;location;lat;lon;timestamp;pressure;altitude;pressure_sealevel;temperature;humidity
63194;BME280;49289;51.670;5.624;2023-02-02T00:00:46;102279.55;;;12.50;63.40
63194;BME280;49289;51.670;5.624;2023-02-02T00:02:34;102256.78;;;12.54;62.75
63194;BME280;49289;51.670;5.624;2023-02-02T00:04:22;102278.83;;;12.90;62.13
63194;BME280;49289;51.670;5.624;2023-02-02T00:06:09;102277.12;;;13.18;61.24
63194;BME280;49289;51.670;5.624;2023-02-02T00:07:57;102273.91;;;12.82;61.61
63194;BME280;49289;51.670;5.624;2023-02-02T00:09:44;102259.08;;;12.83;61.25
63194;BME280;49289;51.670;5.624;2023-02-02T00:11:31;102279.02;;;12.85;62.12
63194;BME280;49289;51.670;5.624;2023-02-02T00:13:18;102281.20;;;13.18;61.30
63194;BME280;49289;51.670;5.624;2023-02-02T00:15:05;102280.94;;;12.66;62.46
63194;BME280;49289;51.670;5.624;2023-02-02T00:16:54;102277.86;;;13.06;61.35
63194;BME280;49289;51.670;5.624;2023-02-02T00:18:42;102256.69;;;12.89;61.36
63194;BME280;49289;51.670;5.624;2023-02-02T00:20:30;102255.64;;;13.34;60.47
63194;BME280;49289;51.670;5.624;2023-02-02T00:22:17;102278.44;;;12.92;61.51
63194;BME280;49289;51.670;5.624;2023-02-02T00:24:06;102277.75;;;13.20;61.66
63194;BME280;49289;51.670;5.624;2023-02-02T00:25:54;102262.68;;;12.67;62.13
63194;BME280;49289;51.670;5.624;2023-02-02T00:27:41;102286.28;;;12.48;63.02
63194;BME280;49289;51.670;5.624;2023-02-02T00:29:29;102264.56;;;12.63;62.59
63194;BME280;49289;51.670;5.624;2023-02-02T00:31:15;102283.72;;;12.10;64.12
63194;BME280;49289;51.670;5.624;2023-02-02T00:33:02;102281.95;;;12.32;63.75
63194;BME280;49289;51.670;5.624;2023-02-02T00:34:49;102267.80;;;12.52;63.18
63194;BME280;49289;51.670;5.624;2023-02-02T00:36:37;102284.36;;;12.82;61.92
63194;BME280;49289;51.670;5.624;2023-02-02T00:38:26;102268.87;;;13.13;61.27
63194;BME280;49289;51.670;5.624;2023-02-02T00:40:14;102272.23;;;13.34;60.50
63194;BME280;49289;51.670;5.624;2023-02-02T00:42:02;102264.08;;;12.92;60.97
63194;BME280;49289;51.670;5.624;2023-02-02T00:43:51;102267.22;;;13.10;60.50
63194;BME280;49289;51.670;5.624;2023-02-02T00:45:39;102286.94;;;12.59;62.17
63194;BME280;49289;51.670;5.624;2023-02-02T00:47:27;102268.28;;;12.79;62.01
63194;BME280;49289;51.670;5.624;2023-02-02T00:49:14;102269.91;;;12.81;61.85
63194;BME280;49289;51.670;5.624;2023-02-02T00:51:01;102292.46;;;12.39;62.72
63194;BME280;49289;51.670;5.624;2023-02-02T00:52:48;102287.70;;;12.71;62.33
63194;BME280;49289;51.670;5.624;2023-02-02T00:54:35;102267.10;;;12.87;61.58
63194;BME280;49289;51.670;5.624;2023-02-02T00:56:23;102282.49;;;12.75;61.55
63194;BME280;49289;51.670;5.624;2023-02-02T00:58:11;102287.26;;;12.20;64.09
63194;BME280;49289;51.670;5.624;2023-02-02T01:00:00;102264.91;;;12.80;61.39
63194;BME280;49289;51.670;5.624;2023-02-02T01:01:48;102261.42;;;13.18;60.20
63194;BME280;49289;51.670;5.624;2023-02-02T01:03:36;102280.71;;;13.10;61.18
63194;BME280;49289;51.670;5.624;2023-02-02T01:05:24;102263.38;;;12.93;61.40
63194;BME280;49289;51.670;5.624;2023-02-02T01:07:12;102260.33;;;13.18;60.85
63194;BME280;49289;51.670;5.624;2023-02-02T01:09:00;102263.86;;;12.64;62.02
63194;BME280;49289;51.670;5.624;2023-02-02T01:10:47;102284.16;;;12.85;61.58
63194;BME280;49289;51.670;5.624;2023-02-02T01:12:34;102262.10;;;12.92;61.11
63194;BME280;49289;51.670;5.624;2023-02-02T01:14:21;102282.95;;;13.07;61.06
63194;BME280;49289;51.670;5.624;2023-02-02T01:16:08;102266.00;;;12.38;62.81
63194;BME280;49289;51.670;5.624;2023-02-02T01:17:55;102286.56;;;12.43;62.84
63194;BME280;49289;51.670;5.624;2023-02-02T01:19:42;102286.96;;;12.53;62.55
63194;BME280;49289;51.670;5.624;2023-02-02T01:21:29;102289.56;;;12.53;62.16
63194;BME280;49289;51.670;5.624;2023-02-02T01:23:16;102280.22;;;13.23;60.47
63194;BME280;49289;51.670;5.624;2023-02-02T01:25:03;102281.86;;;12.75;62.08
63194;BME280;49289;51.670;5.624;2023-02-02T01:26:51;102281.52;;;12.36;63.28
63194;BME280;49289;51.670;5.624;2023-02-02T01:28:39;102259.84;;;12.70;61.50
63194;BME280;49289;51.670;5.624;2023-02-02T01:30:28;102264.48;;;12.41;62.31
63194;BME280;49289;51.670;5.624;2023-02-02T01:32:16;102281.66;;;12.42;62.76
63194;BME280;49289;51.670;5.624;2023-02-02T01:34:03;102278.96;;;12.96;61.28
63194;BME280;49289;51.670;5.624;2023-02-02T01:35:54;102264.44;;;12.40;61.98
63194;BME280;49289;51.670;5.624;2023-02-02T01:37:41;102265.72;;;12.75;61.55
63194;BME280;49289;51.670;5.624;2023-02-02T01:39:28;102282.27;;;13.26;60.22
63194;BME280;49289;51.670;5.624;2023-02-02T01:41:17;102267.10;;;12.87;60.52
63194;BME280;49289;51.670;5.624;2023-02-02T01:43:04;102271.08;;;12.70;61.20
63194;BME280;49289;51.670;5.624;2023-02-02T01:45:12;102269.84;;;12.75;61.52
63194;BME280;49289;51.670;5.624;2023-02-02T01:46:59;102283.63;;;13.33;59.88
63194;BME280;49289;51.670;5.624;2023-02-02T01:48:46;102282.58;;;13.36;59.75
63194;BME280;49289;51.670;5.624;2023-02-02T01:50:33;102287.14;;;12.33;62.40
63194;BME280;49289;51.670;5.624;2023-02-02T01:52:20;102271.40;;;12.19;62.59
63194;BME280;49289;51.670;5.624;2023-02-02T01:54:07;102285.70;;;12.28;62.64
63194;BME280;49289;51.670;5.624;2023-02-02T01:55:54;102289.33;;;12.67;62.02
63194;BME280;49289;51.670;5.624;2023-02-02T01:57:43;102289.87;;;12.97;61.03
63194;BME280;49289;51.670;5.624;2023-02-02T01:59:30;102273.71;;;12.33;62.06
63194;BME280;49289;51.670;5.624;2023-02-02T02:01:18;102291.94;;;12.79;61.35
63194;BME280;49289;51.670;5.624;2023-02-02T02:03:08;102299.45;;;12.48;61.80
63194;BME280;49289;51.670;5.624;2023-02-02T02:04:54;102295.81;;;12.86;61.45
63194;BME280;49289;51.670;5.624;2023-02-02T02:06:42;102282.34;;;12.91;61.18
63194;BME280;49289;51.670;5.624;2023-02-02T02:08:30;102266.12;;;13.29;59.82
63194;BME280;49289;51.670;5.624;2023-02-02T02:12:05;102268.31;;;12.76;60.50
63194;BME280;49289;51.670;5.624;2023-02-02T02:13:51;102289.67;;;12.87;60.93
63194;BME280;49289;51.670;5.624;2023-02-02T02:15:40;102266.86;;;12.34;62.34
63194;BME280;49289;51.670;5.624;2023-02-02T02:17:30;102277.64;;;12.24;62.55
63194;BME280;49289;51.670;5.624;2023-02-02T02:19:21;102291.37;;;12.36;62.58
63194;BME280;49289;51.670;5.624;2023-02-02T02:21:30;102262.45;;;12.92;61.29
63194;BME280;49289;51.670;5.624;2023-02-02T02:23:43;102286.83;;;12.49;62.15
63194;BME280;49289;51.670;5.624;2023-02-02T02:25:41;102292.34;;;13.19;60.15
63194;BME280;49289;51.670;5.624;2023-02-02T02:27:46;102269.14;;;12.81;61.24
63194;BME280;49289;51.670;5.624;2023-02-02T02:29:46;102271.70;;;12.34;62.23
63194;BME280;49289;51.670;5.624;2023-02-02T02:33:39;102264.85;;;12.76;61.32
63194;BME280;49289;51.670;5.624;2023-02-02T02:35:28;102269.02;;;12.56;61.43
63194;BME280;49289;51.670;5.624;2023-02-02T02:37:15;102288.27;;;13.01;61.14
63194;BME280;49289;51.670;5.624;2023-02-02T02:39:05;102270.67;;;12.83;60.76
63194;BME280;49289;51.670;5.624;2023-02-02T02:40:53;102296.16;;;12.48;62.03
63194;BME280;49289;51.670;5.624;2023-02-02T02:42:41;102290.63;;;12.69;62.04
63194;BME280;49289;51.670;5.624;2023-02-02T02:44:29;102272.23;;;12.83;61.02
63194;BME280;49289;51.670;5.624;2023-02-02T02:46:17;102288.97;;;13.00;60.73
63194;BME280;49289;51.670;5.624;2023-02-02T02:48:05;102276.23;;;12.53;61.85
63194;BME280;49289;51.670;5.624;2023-02-02T02:49:54;102294.08;;;12.42;62.49
63194;BME280;49289;51.670;5.624;2023-02-02T02:51:53;102296.80;;;12.44;62.72
63194;BME280;49289;51.670;5.624;2023-02-02T02:53:40;102299.80;;;12.39;63.03
63194;BME280;49289;51.670;5.624;2023-02-02T02:55:30;102286.34;;;11.97;63.01
63194;BME280;49289;51.670;5.624;2023-02-02T02:57:29;102275.59;;;11.88;64.31
63194;BME280;49289;51.670;5.624;2023-02-02T02:59:17;102302.31;;;12.31;62.88
63194;BME280;49289;51.670;5.624;2023-02-02T03:01:09;102271.70;;;12.67;61.79
63194;BME280;49289;51.670;5.624;2023-02-02T03:02:55;102280.55;;;12.56;62.35
63194;BME280;49289;51.670;5.624;2023-02-02T03:04:44;102293.53;;;12.44;62.35
63194;BME280;49289;51.670;5.624;2023-02-02T03:06:33;102275.91;;;12.56;61.67
63194;BME280;49289;51.670;5.624;2023-02-02T03:08:22;102294.25;;;12.66;62.23
63194;BME280;49289;51.670;5.624;2023-02-02T03:10:11;102269.88;;;13.00;60.65
63194;BME280;49289;51.670;5.624;2023-02-02T03:11:57;102255.96;;;12.44;61.68
63194;BME280;49289;51.670;5.624;2023-02-02T03:13:44;102277.91;;;12.53;62.51
63194;BME280;49289;51.670;5.624;2023-02-02T03:15:31;102267.47;;;12.46;62.08
63194;BME280;49289;51.670;5.624;2023-02-02T03:17:19;102287.29;;;12.32;62.76
63194;BME280;49289;51.670;5.624;2023-02-02T03:19:07;102270.59;;;11.92;63.84
63194;BME280;49289;51.670;5.624;2023-02-02T03:20:55;102257.89;;;12.65;62.44
63194;BME280;49289;51.670;5.624;2023-02-02T03:22:44;102275.98;;;13.00;61.00
63194;BME280;49289;51.670;5.624;2023-02-02T03:24:32;102260.00;;;12.51;62.05
63194;BME280;49289;51.670;5.624;2023-02-02T03:26:20;102261.42;;;13.13;60.81
63194;BME280;49289;51.670;5.624;2023-02-02T03:28:08;102259.80;;;13.10;60.52
63194;BME280;49289;51.670;5.624;2023-02-02T03:29:55;102274.17;;;12.54;61.53
63194;BME280;49289;51.670;5.624;2023-02-02T03:31:44;102279.41;;;12.51;61.80
63194;BME280;49289;51.670;5.624;2023-02-02T03:33:34;102268.62;;;12.13;62.92
63194;BME280;49289;51.670;5.624;2023-02-02T03:35:21;102258.97;;;12.39;62.62
63194;BME280;49289;51.670;5.624;2023-02-02T03:37:09;102255.50;;;12.58;61.99
63194;BME280;49289;51.670;5.624;2023-02-02T03:38:56;102260.80;;;12.94;60.77
63194;BME280;49289;51.670;5.624;2023-02-02T03:40:44;102255.49;;;12.52;61.56
63194;BME280;49289;51.670;5.624;2023-02-02T03:42:31;102257.92;;;12.58;61.75
63194;BME280;49289;51.670;5.624;2023-02-02T03:44:18;102280.77;;;12.24;63.17
63194;BME280;49289;51.670;5.624;2023-02-02T03:46:08;102274.53;;;13.08;61.15
63194;BME280;49289;51.670;5.624;2023-02-02T03:47:58;102251.52;;;12.60;60.67
63194;BME280;49289;51.670;5.624;2023-02-02T03:49:46;102278.00;;;12.36;62.37
63194;BME280;49289;51.670;5.624;2023-02-02T03:51:34;102270.28;;;12.37;62.32
63194;BME280;49289;51.670;5.624;2023-02-02T03:53:22;102297.16;;;11.90;64.17
63194;BME280;49289;51.670;5.624;2023-02-02T03:55:10;102303.13;;;12.31;63.31
63194;BME280;49289;51.670;5.624;2023-02-02T03:56:58;102307.73;;;12.15;62.92
63194;BME280;49289;51.670;5.624;2023-02-02T03:58:47;102299.94;;;12.92;61.75
63194;BME280;49289;51.670;5.624;2023-02-02T04:00:35;102290.23;;;12.34;62.33
63194;BME280;49289;51.670;5.624;2023-02-02T04:02:22;102310.50;;;12.32;62.55
63194;BME280;49289;51.670;5.624;2023-02-02T04:04:09;102306.82;;;12.80;61.64
63194;BME280;49289;51.670;5.624;2023-02-02T04:05:56;102294.23;;;12.02;63.26
63194;BME280;49289;51.670;5.624;2023-02-02T04:07:43;102314.76;;;11.80;64.31
63194;BME280;49289;51.670;5.624;2023-02-02T04:09:30;102315.03;;;12.26;63.51
63194;BME280;49289;51.670;5.624;2023-02-02T04:11:20;102317.35;;;12.58;62.30
63194;BME280;49289;51.670;5.624;2023-02-02T04:13:09;102316.86;;;12.46;62.34
63194;BME280;49289;51.670;5.624;2023-02-02T04:14:57;102303.60;;;12.38;62.34
63194;BME280;49289;51.670;5.624;2023-02-02T04:16:45;102324.34;;;12.39;62.66
63194;BME280;49289;51.670;5.624;2023-02-02T04:18:32;102304.61;;;12.40;63.04
63194;BME280;49289;51.670;5.624;2023-02-02T04:20:21;102324.33;;;12.69;61.97
63194;BME280;49289;51.670;5.624;2023-02-02T04:22:08;102326.39;;;12.26;63.33
63194;BME280;49289;51.670;5.624;2023-02-02T04:23:56;102322.66;;;12.36;63.31
63194;BME280;49289;51.670;5.624;2023-02-02T04:25:47;102313.73;;;12.84;61.70
63194;BME280;49289;51.670;5.624;2023-02-02T04:27:32;102299.86;;;12.51;62.36
63194;BME280;49289;51.670;5.624;2023-02-02T04:29:21;102320.21;;;12.69;62.10
63194;BME280;49289;51.670;5.624;2023-02-02T04:31:09;102323.83;;;12.73;62.08
63194;BME280;49289;51.670;5.624;2023-02-02T04:32:57;102300.18;;;13.05;60.63
63194;BME280;49289;51.670;5.624;2023-02-02T04:34:44;102305.36;;;12.28;62.43
63194;BME280;49289;51.670;5.624;2023-02-02T04:36:31;102316.94;;;12.46;62.60
63194;BME280;49289;51.670;5.624;2023-02-02T04:38:18;102291.67;;;12.31;62.63
63194;BME280;49289;51.670;5.624;2023-02-02T04:40:05;102300.02;;;12.78;61.73
63194;BME280;49289;51.670;5.624;2023-02-02T04:41:52;102301.52;;;12.97;60.89
63194;BME280;49289;51.670;5.624;2023-02-02T04:43:40;102302.48;;;12.97;61.08
63194;BME280;49289;51.670;5.624;2023-02-02T04:45:29;102309.70;;;13.03;61.45
63194;BME280;49289;51.670;5.624;2023-02-02T04:47:17;102306.50;;;12.62;62.05
63194;BME280;49289;51.670;5.624;2023-02-02T04:49:05;102287.69;;;12.99;60.82
63194;BME280;49289;51.670;5.624;2023-02-02T04:50:56;102286.16;;;13.08;60.84
63194;BME280;49289;51.670;5.624;2023-02-02T04:52:40;102304.89;;;13.14;60.64
63194;BME280;49289;51.670;5.624;2023-02-02T04:54:27;102308.01;;;12.86;61.40
63194;BME280;49289;51.670;5.624;2023-02-02T04:56:17;102303.20;;;12.86;61.41
63194;BME280;49289;51.670;5.624;2023-02-02T04:58:05;102317.16;;;12.36;62.52
63194;BME280;49289;51.670;5.624;2023-02-02T04:59:53;102300.39;;;12.54;62.14
63194;BME280;49289;51.670;5.624;2023-02-02T05:01:41;102321.16;;;12.45;62.33
63194;BME280;49289;51.670;5.624;2023-02-02T05:03:29;102322.38;;;13.04;61.12
63194;BME280;49289;51.670;5.624;2023-02-02T05:05:17;102311.17;;;13.01;60.79
63194;BME280;49289;51.670;5.624;2023-02-02T05:07:05;102326.67;;;13.53;59.03
63194;BME280;49289;51.670;5.624;2023-02-02T05:08:53;102311.04;;;13.18;59.93
63194;BME280;49289;51.670;5.624;2023-02-02T05:10:44;102326.30;;;12.86;61.43
63194;BME280;49289;51.670;5.624;2023-02-02T05:12:32;102332.69;;;12.90;61.20
63194;BME280;49289;51.670;5.624;2023-02-02T05:14:20;102315.06;;;12.13;63.02
63194;BME280;49289;51.670;5.624;2023-02-02T05:16:09;102315.45;;;12.99;60.95
63194;BME280;49289;51.670;5.624;2023-02-02T05:17:57;102297.98;;;12.78;61.17
63194;BME280;49289;51.670;5.624;2023-02-02T05:19:46;102310.66;;;13.15;60.57
63194;BME280;49289;51.670;5.624;2023-02-02T05:21:34;102297.20;;;12.54;61.89
63194;BME280;49289;51.670;5.624;2023-02-02T05:23:22;102321.72;;;12.52;62.15
63194;BME280;49289;51.670;5.624;2023-02-02T05:25:10;102321.45;;;12.53;62.43
63194;BME280;49289;51.670;5.624;2023-02-02T05:26:59;102307.71;;;12.46;61.90
63194;BME280;49289;51.670;5.624;2023-02-02T05:28:46;102326.22;;;12.43;62.51
63194;BME280;49289;51.670;5.624;2023-02-02T05:30:37;102322.89;;;13.17;60.75
63194;BME280;49289;51.670;5.624;2023-02-02T05:32:24;102326.62;;;12.95;61.05
63194;BME280;49289;51.670;5.624;2023-02-02T05:34:12;102327.52;;;13.02;60.81
63194;BME280;49289;51.670;5.624;2023-02-02T05:36:00;102330.21;;;13.17;59.89
63194;BME280;49289;51.670;5.624;2023-02-02T05:37:47;102336.38;;;13.03;60.12
63194;BME280;49289;51.670;5.624;2023-02-02T05:39:34;102344.62;;;11.99;63.49
63194;BME280;49289;51.670;5.624;2023-02-02T05:41:21;102340.88;;;12.43;62.85
63194;BME280;49289;51.670;5.624;2023-02-02T05:43:08;102338.68;;;12.71;61.69
63194;BME280;49289;51.670;5.624;2023-02-02T05:44:56;102336.05;;;13.07;60.68
63194;BME280;49289;51.670;5.624;2023-02-02T05:46:44;102326.11;;;12.65;61.23
63194;BME280;49289;51.670;5.624;2023-02-02T05:48:33;102337.08;;;12.54;62.63
63194;BME280;49289;51.670;5.624;2023-02-02T05:50:21;102337.99;;;11.90;64.02
63194;BME280;49289;51.670;5.624;2023-02-02T05:52:09;102333.54;;;12.77;61.88
63194;BME280;49289;51.670;5.624;2023-02-02T05:53:58;102339.83;;;12.85;61.53
63194;BME280;49289;51.670;5.624;2023-02-02T05:55:46;102337.83;;;13.08;60.83
63194;BME280;49289;51.670;5.624;2023-02-02T05:57:34;102320.75;;;12.74;61.30
63194;BME280;49289;51.670;5.624;2023-02-02T05:59:22;102314.36;;;12.34;62.87
63194;BME280;49289;51.670;5.624;2023-02-02T06:01:10;102346.32;;;12.44;62.78
63194;BME280;49289;51.670;5.624;2023-02-02T06:02:57;102329.52;;;12.21;63.56
63194;BME280;49289;51.670;5.624;2023-02-02T06:04:45;102324.93;;;12.68;62.00
63194;BME280;49289;51.670;5.624;2023-02-02T06:06:34;102342.89;;;12.88;61.58
63194;BME280;49289;51.670;5.624;2023-02-02T06:08:22;102335.97;;;12.81;61.64
63194;BME280;49289;51.670;5.624;2023-02-02T06:10:10;102318.72;;;12.70;61.79
63194;BME280;49289;51.670;5.624;2023-02-02T06:11:57;102335.55;;;12.38;62.78
63194;BME280;49289;51.670;5.624;2023-02-02T06:13:44;102334.27;;;13.14;61.12
63194;BME280;49289;51.670;5.624;2023-02-02T06:15:32;102321.83;;;12.65;61.32
63194;BME280;49289;51.670;5.624;2023-02-02T06:17:20;102325.84;;;12.48;62.51
63194;BME280;49289;51.670;5.624;2023-02-02T06:19:08;102331.10;;;12.56;62.24
63194;BME280;49289;51.670;5.624;2023-02-02T06:21:01;102307.38;;;12.47;61.82
63194;BME280;49289;51.670;5.624;2023-02-02T06:22:47;102348.72;;;12.68;61.98
63194;BME280;49289;51.670;5.624;2023-02-02T06:24:35;102360.19;;;12.36;62.94
63194;BME280;49289;51.670;5.624;2023-02-02T06:26:24;102343.31;;;13.01;61.44
63194;BME280;49289;51.670;5.624;2023-02-02T06:28:12;102348.20;;;12.90;61.40
63194;BME280;49289;51.670;5.624;2023-02-02T06:29:59;102349.90;;;12.82;61.47
63194;BME280;49289;51.670;5.624;2023-02-02T06:31:46;102353.23;;;12.46;62.73
63194;BME280;49289;51.670;5.624;2023-02-02T06:33:34;102366.38;;;12.53;62.47
63194;BME280;49289;51.670;5.624;2023-02-02T06:35:23;102352.52;;;12.32;63.21
63194;BME280;49289;51.670;5.624;2023-02-02T06:37:11;102334.20;;;12.48;62.29
63194;BME280;49289;51.670;5.624;2023-02-02T06:39:00;102354.83;;;12.84;61.53
63194;BME280;49289;51.670;5.624;2023-02-02T06:40:48;102345.61;;;12.58;62.51
63194;BME280;49289;51.670;5.624;2023-02-02T06:42:36;102354.66;;;13.07;60.88
63194;BME280;49289;51.670;5.624;2023-02-02T06:44:24;102338.34;;;13.40;59.62
63194;BME280;49289;51.670;5.624;2023-02-02T06:46:11;102364.91;;;12.80;60.92
63194;BME280;49289;51.670;5.624;2023-02-02T06:47:58;102345.13;;;12.37;62.00
63194;BME280;49289;51.670;5.624;2023-02-02T06:49:47;102364.64;;;12.94;61.25
63194;BME280;49289;51.670;5.624;2023-02-02T06:51:35;102374.33;;;12.95;61.00
63194;BME280;49289;51.670;5.624;2023-02-02T06:53:23;102379.55;;;12.80;61.83
63194;BME280;49289;51.670;5.624;2023-02-02T06:55:12;102358.30;;;12.85;61.46
63194;BME280;49289;51.670;5.624;2023-02-02T06:56:59;102360.19;;;12.94;60.86
63194;BME280;49289;51.670;5.624;2023-02-02T06:58:47;102385.22;;;13.07;60.43
63194;BME280;49289;51.670;5.624;2023-02-02T07:00:36;102378.73;;;12.78;61.43
63194;BME280;49289;51.670;5.624;2023-02-02T07:02:24;102361.29;;;12.93;61.17
63194;BME280;49289;51.670;5.624;2023-02-02T07:04:11;102378.28;;;12.95;61.04
63194;BME280;49289;51.670;5.624;2023-02-02T07:05:58;102370.16;;;13.03;60.95
63194;BME280;49289;51.670;5.624;2023-02-02T07:07:45;102381.08;;;12.51;62.72
63194;BME280;49289;51.670;5.624;2023-02-02T07:09:32;102363.02;;;12.37;63.15
63194;BME280;49289;51.670;5.624;2023-02-02T07:11:20;102384.53;;;12.43;62.75
63194;BME280;49289;51.670;5.624;2023-02-02T07:13:07;102389.88;;;12.37;63.76
63194;BME280;49289;51.670;5.624;2023-02-02T07:14:56;102375.84;;;12.21;63.66
63194;BME280;49289;51.670;5.624;2023-02-02T07:16:44;102374.42;;;12.12;64.31
63194;BME280;49289;51.670;5.624;2023-02-02T07:18:32;102391.26;;;12.14;64.65
63194;BME280;49289;51.670;5.624;2023-02-02T07:20:23;102371.64;;;12.03;64.59
63194;BME280;49289;51.670;5.624;2023-02-02T07:22:10;102372.86;;;12.83;62.31
63194;BME280;49289;51.670;5.624;2023-02-02T07:23:57;102394.97;;;13.00;62.29
63194;BME280;49289;51.670;5.624;2023-02-02T07:25:44;102380.44;;;12.17;64.20
63194;BME280;49289;51.670;5.624;2023-02-02T07:27:31;102374.98;;;11.95;65.67
63194;BME280;49289;51.670;5.624;2023-02-02T07:29:19;102395.10;;;12.21;64.16
63194;BME280;49289;51.670;5.624;2023-02-02T07:31:10;102376.38;;;12.04;65.46
63194;BME280;49289;51.670;5.624;2023-02-02T07:32:57;102382.19;;;12.90;63.37
63194;BME280;49289;51.670;5.624;2023-02-02T07:34:44;102385.91;;;12.76;63.11
63194;BME280;49289;51.670;5.624;2023-02-02T07:36:31;102386.92;;;12.61;63.76
63194;BME280;49289;51.670;5.624;2023-02-02T07:38:20;102376.86;;;12.22;64.90
63194;BME280;49289;51.670;5.624;2023-02-02T07:40:07;102397.16;;;12.42;64.94
63194;BME280;49289;51.670;5.624;2023-02-02T07:41:55;102389.45;;;12.50;64.32
63194;BME280;49289;51.670;5.624;2023-02-02T07:43:44;102388.86;;;12.67;64.49
63194;BME280;49289;51.670;5.624;2023-02-02T07:45:31;102389.55;;;11.71;66.71
63194;BME280;49289;51.670;5.624;2023-02-02T07:47:19;102406.76;;;11.77;67.45
63194;BME280;49289;51.670;5.624;2023-02-02T07:49:08;102403.98;;;12.06;66.49
63194;BME280;49289;51.670;5.624;2023-02-02T07:50:56;102413.45;;;12.40;65.88
63194;BME280;49289;51.670;5.624;2023-02-02T07:52:44;102413.42;;;12.46;65.23
63194;BME280;49289;51.670;5.624;2023-02-02T07:54:32;102402.80;;;11.99;65.82
63194;BME280;49289;51.670;5.624;2023-02-02T07:56:21;102417.15;;;12.51;64.85
63194;BME280;49289;51.670;5.624;2023-02-02T07:58:07;102420.33;;;11.87;66.49
63194;BME280;49289;51.670;5.624;2023-02-02T07:59:54;102406.83;;;12.03;66.09
63194;BME280;49289;51.670;5.624;2023-02-02T08:01:41;102402.21;;;12.10;65.66
63194;BME280;49289;51.670;5.624;2023-02-02T08:03:29;102420.82;;;12.02;66.13
63194;BME280;49289;51.670;5.624;2023-02-02T08:05:18;102405.63;;;12.05;66.37
63194;BME280;49289;51.670;5.624;2023-02-02T08:07:05;102420.64;;;12.47;64.78
63194;BME280;49289;51.670;5.624;2023-02-02T08:08:54;102424.29;;;12.17;65.77
63194;BME280;49289;51.670;5.624;2023-02-02T08:10:43;102409.06;;;12.05;65.59
63194;BME280;49289;51.670;5.624;2023-02-02T08:12:31;102404.32;;;12.15;65.46
63194;BME280;49289;51.670;5.624;2023-02-02T08:14:19;102431.39;;;12.24;65.41
63194;BME280;49289;51.670;5.624;2023-02-02T08:16:09;102409.80;;;12.91;63.58
63194;BME280;49289;51.670;5.624;2023-02-02T08:17:56;102429.91;;;12.93;63.85
63194;BME280;49289;51.670;5.624;2023-02-02T08:19:43;102417.92;;;12.66;63.99
63194;BME280;49289;51.670;5.624;2023-02-02T08:21:32;102434.23;;;12.23;64.59
63194;BME280;49289;51.670;5.624;2023-02-02T08:23:20;102417.11;;;12.72;63.95
63194;BME280;49289;51.670;5.624;2023-02-02T08:25:08;102425.38;;;12.37;64.82
63194;BME280;49289;51.670;5.624;2023-02-02T08:26:56;102444.13;;;12.59;63.92
63194;BME280;49289;51.670;5.624;2023-02-02T08:28:43;102442.05;;;12.85;63.13
63194;BME280;49289;51.670;5.624;2023-02-02T08:30:31;102443.59;;;12.33;64.04
63194;BME280;49289;51.670;5.624;2023-02-02T08:32:18;102442.36;;;12.67;63.49
63194;BME280;49289;51.670;5.624;2023-02-02T08:34:05;102444.92;;;12.07;65.11
63194;BME280;49289;51.670;5.624;2023-02-02T08:35:52;102428.00;;;12.49;64.33
63194;BME280;49289;51.670;5.624;2023-02-02T08:37:40;102428.88;;;12.76;63.34
63194;BME280;49289;51.670;5.624;2023-02-02T08:39:29;102450.59;;;12.91;62.98
63194;BME280;49289;51.670;5.624;2023-02-02T08:41:18;102433.20;;;12.71;63.13
63194;BME280;49289;51.670;5.624;2023-02-02T08:43:04;102458.22;;;12.70;63.77
63194;BME280;49289;51.670;5.624;2023-02-02T08:44:53;102450.61;;;12.73;63.45
63194;BME280;49289;51.670;5.624;2023-02-02T08:46:41;102452.22;;;12.43;64.17
63194;BME280;49289;51.670;5.624;2023-02-02T08:48:28;102469.30;;;12.59;63.38
63194;BME280;49289;51.670;5.624;2023-02-02T08:50:16;102482.58;;;12.82;63.02
63194;BME280;49289;51.670;5.624;2023-02-02T08:52:03;102462.41;;;12.44;63.40
63194;BME280;49289;51.670;5.624;2023-02-02T08:53:51;102485.47;;;12.60;63.63
63194;BME280;49289;51.670;5.624;2023-02-02T08:55:39;102484.92;;;13.23;62.17
63194;BME280;49289;51.670;5.624;2023-02-02T08:57:27;102474.56;;;12.87;62.32
63194;BME280;49289;51.670;5.624;2023-02-02T08:59:15;102499.03;;;12.72;62.92
63194;BME280;49289;51.670;5.624;2023-02-02T09:01:10;102501.48;;;12.36;64.10
63194;BME280;49289;51.670;5.624;2023-02-02T09:02:56;102487.77;;;12.21;64.29
63194;BME280;49289;51.670;5.624;2023-02-02T09:04:43;102503.72;;;12.11;64.21
63194;BME280;49289;51.670;5.624;2023-02-02T09:06:31;102508.37;;;11.92;65.14
63194;BME280;49289;51.670;5.624;2023-02-02T09:08:17;102511.42;;;12.49;64.45
63194;BME280;49289;51.670;5.624;2023-02-02T09:10:05;102496.35;;;12.77;62.74
63194;BME280;49289;51.670;5.624;2023-02-02T09:11:54;102524.94;;;13.17;61.69
63194;BME280;49289;51.670;5.624;2023-02-02T09:13:42;102524.44;;;12.55;63.82
63194;BME280;49289;51.670;5.624;2023-02-02T09:15:30;102502.97;;;12.36;63.14
63194;BME280;49289;51.670;5.624;2023-02-02T09:17:18;102504.08;;;12.03;64.50
63194;BME280;49289;51.670;5.624;2023-02-02T09:19:05;102503.82;;;12.31;63.93
63194;BME280;49289;51.670;5.624;2023-02-02T09:20:52;102522.87;;;12.83;63.00
63194;BME280;49289;51.670;5.624;2023-02-02T09:22:39;102505.34;;;12.46;63.17
63194;BME280;49289;51.670;5.624;2023-02-02T09:24:26;102526.30;;;12.53;63.20
63194;BME280;49289;51.670;5.624;2023-02-02T09:26:21;102511.55;;;12.76;62.36
63194;BME280;49289;51.670;5.624;2023-02-02T09:28:09;102525.00;;;12.94;62.13
63194;BME280;49289;51.670;5.624;2023-02-02T09:29:41;102509.41;;;13.05;61.73